الصفحة الرئيسية
METAR-TAF:

METAR-TAF

مطار :

Shōnai, اليابان

دائرة عرض: 38-49N, خط طول: 139-47E, ارتفاع: 22 متر

مراقبة الطقس الحالي

تاريخ ووقت الإصدار 1ساعة و 9 دقيقة قبل الساعة 02:00UTC
ريح 5 عقدة من الشرق/الجنوب الشرقي
درجة الحرارة 20°درجة مئوية
الرطوبة 100%
ضغط 1006 hPa
الرؤية: 8000 متر
غيوم قليلة على ارتفاع 200 قدم
غيوم متفرقة على ارتفاع 400 قدم
غيوم مفككة على ارتفاع 700 قدم
زخات من الأمطار الخفيفة,

METAR: RJSY 250200Z 12005KT 8000 -SHRA FEW002 SCT004 BKN007 20/20 Q1006

زمن: 12:09 (03:09 UTC)


TAF: مفقودة

أرصاد الطقس والتوقعات من أكثر من 4000 مطار (تقارير الطقس للمطار METAR والتنبؤ بالطقس بالمطارTAF).

المحطات المتاحة هي النقط الصفراء والحمراء على الخريطة.

حرك المؤشر فوق النقطة لمعرفة اسم المحطة.

ثم انقر لمعرفة أرصاد وتوقعات الطقس.

لتغيير الخارطة: اضغط على الأزرار الخضراء مع رمز الصليب الأسود للتكبير. على الزر الأخضر مع شرطة للتصغير، أو على الأسهم الخضراء للخرائط المجاورة.


METAR-TAF: